Terminal Aerodrome Forecast
Issued by NWS Wichita, KS

Home | Current Version | Previous Version | Text Only | Print | Product List | Glossary Off
Versions: 1 2 3 4 5 6 7 8 9 10 11 12 13 14 15 16 17 18 19

000
FTUS43 KICT 291838 AAA
TAFICT
TAF AMD
KICT 291838Z 2919/3018 04010KT P6SM VCTS SCT040 BKN080CB
      TEMPO 2919/2923 VRB15G22KT 5SM TSRA OVC040CB
     FM300100 07006KT P6SM VCTS BKN070CB
     FM300900 08006KT P6SM -SHRA VCTS OVC060CB=

USA.gov is the U.S. government's official web portal to all federal, state and local government web resources and services.